sensor_id;sensor_type;location;lat;lon;timestamp;P1;durP1;ratioP1;P2;durP2;ratioP2
66946;SDS011;53853;51.982;5.928;2024-02-14T00:01:19;7.47;;;3.58;;
66946;SDS011;53853;51.982;5.928;2024-02-14T00:03:49;3.70;;;2.53;;
66946;SDS011;53853;51.982;5.928;2024-02-14T00:06:19;5.18;;;2.55;;
66946;SDS011;53853;51.982;5.928;2024-02-14T00:08:52;3.58;;;2.33;;
66946;SDS011;53853;51.982;5.928;2024-02-14T00:11:22;5.25;;;3.10;;
66946;SDS011;53853;51.982;5.928;2024-02-14T00:13:51;4.45;;;3.03;;
66946;SDS011;53853;51.982;5.928;2024-02-14T00:16:22;5.10;;;2.65;;
66946;SDS011;53853;51.982;5.928;2024-02-14T00:18:52;5.88;;;2.90;;
66946;SDS011;53853;51.982;5.928;2024-02-14T00:21:22;4.88;;;2.72;;
66946;SDS011;53853;51.982;5.928;2024-02-14T00:23:55;3.58;;;2.45;;
66946;SDS011;53853;51.982;5.928;2024-02-14T00:26:25;5.45;;;3.42;;
66946;SDS011;53853;51.982;5.928;2024-02-14T00:28:55;4.32;;;2.92;;
66946;SDS011;53853;51.982;5.928;2024-02-14T00:31:25;4.43;;;3.15;;
66946;SDS011;53853;51.982;5.928;2024-02-14T00:33:55;4.25;;;2.80;;
66946;SDS011;53853;51.982;5.928;2024-02-14T00:36:24;5.53;;;3.13;;
66946;SDS011;53853;51.982;5.928;2024-02-14T00:38:57;3.92;;;2.60;;
66946;SDS011;53853;51.982;5.928;2024-02-14T00:41:27;3.72;;;2.78;;
66946;SDS011;53853;51.982;5.928;2024-02-14T00:43:57;4.32;;;2.30;;
66946;SDS011;53853;51.982;5.928;2024-02-14T00:46:27;4.05;;;2.90;;
66946;SDS011;53853;51.982;5.928;2024-02-14T00:48:57;3.85;;;2.78;;
66946;SDS011;53853;51.982;5.928;2024-02-14T00:51:27;3.30;;;2.70;;
66946;SDS011;53853;51.982;5.928;2024-02-14T00:53:59;5.65;;;3.45;;
66946;SDS011;53853;51.982;5.928;2024-02-14T00:56:29;3.22;;;2.53;;
66946;SDS011;53853;51.982;5.928;2024-02-14T00:58:59;5.25;;;3.55;;
66946;SDS011;53853;51.982;5.928;2024-02-14T01:01:29;4.63;;;3.35;;
66946;SDS011;53853;51.982;5.928;2024-02-14T01:03:59;4.65;;;2.78;;
66946;SDS011;53853;51.982;5.928;2024-02-14T01:06:29;8.15;;;3.55;;
66946;SDS011;53853;51.982;5.928;2024-02-14T01:09:02;4.47;;;2.80;;
66946;SDS011;53853;51.982;5.928;2024-02-14T01:11:32;4.90;;;3.00;;
66946;SDS011;53853;51.982;5.928;2024-02-14T01:14:02;6.20;;;3.10;;
66946;SDS011;53853;51.982;5.928;2024-02-14T01:16:32;6.63;;;4.05;;
66946;SDS011;53853;51.982;5.928;2024-02-14T01:19:02;4.57;;;3.00;;
66946;SDS011;53853;51.982;5.928;2024-02-14T01:21:31;4.38;;;3.08;;
66946;SDS011;53853;51.982;5.928;2024-02-14T01:24:04;4.32;;;3.67;;
66946;SDS011;53853;51.982;5.928;2024-02-14T01:26:34;6.30;;;4.32;;
66946;SDS011;53853;51.982;5.928;2024-02-14T01:29:04;5.25;;;3.80;;
66946;SDS011;53853;51.982;5.928;2024-02-14T01:31:35;4.50;;;3.55;;
66946;SDS011;53853;51.982;5.928;2024-02-14T01:34:05;8.48;;;3.95;;
66946;SDS011;53853;51.982;5.928;2024-02-14T01:36:35;6.80;;;3.78;;
66946;SDS011;53853;51.982;5.928;2024-02-14T01:39:09;5.45;;;3.78;;
66946;SDS011;53853;51.982;5.928;2024-02-14T01:41:43;8.30;;;4.40;;
66946;SDS011;53853;51.982;5.928;2024-02-14T01:44:14;5.43;;;4.28;;
66946;SDS011;53853;51.982;5.928;2024-02-14T01:46:44;5.82;;;4.15;;
66946;SDS011;53853;51.982;5.928;2024-02-14T01:49:14;4.82;;;3.20;;
66946;SDS011;53853;51.982;5.928;2024-02-14T01:51:44;6.63;;;4.70;;
66946;SDS011;53853;51.982;5.928;2024-02-14T01:54:18;7.80;;;4.80;;
66946;SDS011;53853;51.982;5.928;2024-02-14T01:56:48;6.10;;;4.43;;
66946;SDS011;53853;51.982;5.928;2024-02-14T01:59:18;9.50;;;3.92;;
66946;SDS011;53853;51.982;5.928;2024-02-14T02:01:48;5.00;;;3.97;;
66946;SDS011;53853;51.982;5.928;2024-02-14T02:04:18;5.15;;;4.35;;
66946;SDS011;53853;51.982;5.928;2024-02-14T02:06:48;4.65;;;3.92;;
66946;SDS011;53853;51.982;5.928;2024-02-14T02:09:20;7.65;;;4.50;;
66946;SDS011;53853;51.982;5.928;2024-02-14T02:11:52;6.65;;;4.55;;
66946;SDS011;53853;51.982;5.928;2024-02-14T02:14:22;8.35;;;4.30;;
66946;SDS011;53853;51.982;5.928;2024-02-14T02:16:52;7.57;;;5.00;;
66946;SDS011;53853;51.982;5.928;2024-02-14T02:19:22;7.80;;;5.13;;
66946;SDS011;53853;51.982;5.928;2024-02-14T02:21:52;6.72;;;4.60;;
66946;SDS011;53853;51.982;5.928;2024-02-14T02:24:25;7.22;;;4.28;;
66946;SDS011;53853;51.982;5.928;2024-02-14T02:26:55;6.40;;;5.10;;
66946;SDS011;53853;51.982;5.928;2024-02-14T02:29:25;5.32;;;4.25;;
66946;SDS011;53853;51.982;5.928;2024-02-14T02:31:55;6.28;;;4.93;;
66946;SDS011;53853;51.982;5.928;2024-02-14T02:34:25;6.15;;;4.28;;
66946;SDS011;53853;51.982;5.928;2024-02-14T02:36:54;7.80;;;4.55;;
66946;SDS011;53853;51.982;5.928;2024-02-14T02:39:27;7.38;;;4.80;;
66946;SDS011;53853;51.982;5.928;2024-02-14T02:41:57;5.80;;;5.03;;
66946;SDS011;53853;51.982;5.928;2024-02-14T02:44:26;7.32;;;5.78;;
66946;SDS011;53853;51.982;5.928;2024-02-14T02:46:57;7.72;;;4.97;;
66946;SDS011;53853;51.982;5.928;2024-02-14T02:49:26;5.93;;;5.30;;
66946;SDS011;53853;51.982;5.928;2024-02-14T02:51:56;6.93;;;5.75;;
66946;SDS011;53853;51.982;5.928;2024-02-14T02:54:29;6.78;;;4.30;;
66946;SDS011;53853;51.982;5.928;2024-02-14T02:56:58;7.18;;;5.20;;
66946;SDS011;53853;51.982;5.928;2024-02-14T02:59:29;4.43;;;3.85;;
66946;SDS011;53853;51.982;5.928;2024-02-14T03:01:58;5.18;;;4.35;;
66946;SDS011;53853;51.982;5.928;2024-02-14T03:04:28;6.90;;;4.43;;
66946;SDS011;53853;51.982;5.928;2024-02-14T03:06:59;5.43;;;4.07;;
66946;SDS011;53853;51.982;5.928;2024-02-14T03:09:35;7.00;;;5.00;;
66946;SDS011;53853;51.982;5.928;2024-02-14T03:12:05;5.68;;;4.63;;
66946;SDS011;53853;51.982;5.928;2024-02-14T03:14:35;5.10;;;4.35;;
66946;SDS011;53853;51.982;5.928;2024-02-14T03:17:05;7.05;;;5.10;;
66946;SDS011;53853;51.982;5.928;2024-02-14T03:19:35;5.50;;;4.15;;
66946;SDS011;53853;51.982;5.928;2024-02-14T03:22:06;5.60;;;4.28;;
66946;SDS011;53853;51.982;5.928;2024-02-14T03:24:38;8.07;;;5.10;;
66946;SDS011;53853;51.982;5.928;2024-02-14T03:27:09;7.05;;;4.60;;
66946;SDS011;53853;51.982;5.928;2024-02-14T03:29:39;6.07;;;4.40;;
66946;SDS011;53853;51.982;5.928;2024-02-14T03:32:09;5.30;;;4.78;;
66946;SDS011;53853;51.982;5.928;2024-02-14T03:34:39;5.95;;;4.82;;
66946;SDS011;53853;51.982;5.928;2024-02-14T03:37:10;6.65;;;5.35;;
66946;SDS011;53853;51.982;5.928;2024-02-14T03:39:43;5.35;;;4.43;;
66946;SDS011;53853;51.982;5.928;2024-02-14T03:42:13;6.63;;;4.97;;
66946;SDS011;53853;51.982;5.928;2024-02-14T03:44:43;7.38;;;6.03;;
66946;SDS011;53853;51.982;5.928;2024-02-14T03:47:13;8.48;;;5.55;;
66946;SDS011;53853;51.982;5.928;2024-02-14T03:49:43;6.78;;;5.30;;
66946;SDS011;53853;51.982;5.928;2024-02-14T03:52:13;5.63;;;5.05;;
66946;SDS011;53853;51.982;5.928;2024-02-14T03:54:45;9.85;;;5.75;;
66946;SDS011;53853;51.982;5.928;2024-02-14T03:57:16;6.65;;;5.88;;
66946;SDS011;53853;51.982;5.928;2024-02-14T03:59:46;10.00;;;6.80;;
66946;SDS011;53853;51.982;5.928;2024-02-14T04:02:16;7.90;;;6.05;;
66946;SDS011;53853;51.982;5.928;2024-02-14T04:04:46;5.70;;;5.10;;
66946;SDS011;53853;51.982;5.928;2024-02-14T04:07:16;9.25;;;6.50;;
66946;SDS011;53853;51.982;5.928;2024-02-14T04:09:50;11.05;;;6.38;;
66946;SDS011;53853;51.982;5.928;2024-02-14T04:12:19;9.00;;;6.68;;
66946;SDS011;53853;51.982;5.928;2024-02-14T04:14:49;10.93;;;7.38;;
66946;SDS011;53853;51.982;5.928;2024-02-14T04:17:20;9.05;;;6.40;;
66946;SDS011;53853;51.982;5.928;2024-02-14T04:19:49;9.77;;;6.88;;
66946;SDS011;53853;51.982;5.928;2024-02-14T04:22:19;8.40;;;7.30;;
66946;SDS011;53853;51.982;5.928;2024-02-14T04:24:52;6.80;;;5.18;;
66946;SDS011;53853;51.982;5.928;2024-02-14T04:27:22;8.63;;;6.55;;
66946;SDS011;53853;51.982;5.928;2024-02-14T04:29:52;8.43;;;6.78;;
66946;SDS011;53853;51.982;5.928;2024-02-14T04:32:22;9.05;;;6.50;;
66946;SDS011;53853;51.982;5.928;2024-02-14T04:34:50;8.07;;;7.18;;
66946;SDS011;53853;51.982;5.928;2024-02-14T04:37:20;13.05;;;8.63;;
66946;SDS011;53853;51.982;5.928;2024-02-14T04:39:52;10.95;;;7.75;;
66946;SDS011;53853;51.982;5.928;2024-02-14T04:42:22;8.98;;;6.50;;
66946;SDS011;53853;51.982;5.928;2024-02-14T04:44:52;13.48;;;8.60;;
66946;SDS011;53853;51.982;5.928;2024-02-14T04:47:21;10.18;;;6.97;;
66946;SDS011;53853;51.982;5.928;2024-02-14T04:49:51;13.95;;;9.02;;
66946;SDS011;53853;51.982;5.928;2024-02-14T04:52:21;9.52;;;7.63;;
66946;SDS011;53853;51.982;5.928;2024-02-14T04:54:53;10.90;;;7.53;;
66946;SDS011;53853;51.982;5.928;2024-02-14T04:57:23;9.63;;;8.15;;
66946;SDS011;53853;51.982;5.928;2024-02-14T04:59:53;8.73;;;7.55;;
66946;SDS011;53853;51.982;5.928;2024-02-14T05:02:23;13.90;;;8.23;;
66946;SDS011;53853;51.982;5.928;2024-02-14T05:04:53;9.55;;;8.55;;
66946;SDS011;53853;51.982;5.928;2024-02-14T05:07:24;13.50;;;9.90;;
66946;SDS011;53853;51.982;5.928;2024-02-14T05:09:56;13.05;;;8.18;;
66946;SDS011;53853;51.982;5.928;2024-02-14T05:12:26;9.18;;;7.95;;
66946;SDS011;53853;51.982;5.928;2024-02-14T05:14:56;10.35;;;7.85;;
66946;SDS011;53853;51.982;5.928;2024-02-14T05:17:26;9.00;;;7.15;;
66946;SDS011;53853;51.982;5.928;2024-02-14T05:19:56;11.30;;;9.43;;
66946;SDS011;53853;51.982;5.928;2024-02-14T05:22:25;8.70;;;7.22;;
66946;SDS011;53853;51.982;5.928;2024-02-14T05:24:58;10.57;;;7.65;;
66946;SDS011;53853;51.982;5.928;2024-02-14T05:27:28;10.55;;;7.60;;
66946;SDS011;53853;51.982;5.928;2024-02-14T05:29:57;9.48;;;7.97;;
66946;SDS011;53853;51.982;5.928;2024-02-14T05:32:31;12.45;;;9.10;;
66946;SDS011;53853;51.982;5.928;2024-02-14T05:35:01;11.55;;;7.63;;
66946;SDS011;53853;51.982;5.928;2024-02-14T05:37:32;8.48;;;6.93;;
66946;SDS011;53853;51.982;5.928;2024-02-14T05:40:06;9.25;;;7.15;;
66946;SDS011;53853;51.982;5.928;2024-02-14T05:42:36;9.52;;;7.03;;
66946;SDS011;53853;51.982;5.928;2024-02-14T05:45:06;8.80;;;7.88;;
66946;SDS011;53853;51.982;5.928;2024-02-14T05:47:37;8.90;;;7.78;;
66946;SDS011;53853;51.982;5.928;2024-02-14T05:50:08;11.60;;;7.13;;
66946;SDS011;53853;51.982;5.928;2024-02-14T05:52:39;10.88;;;7.57;;
66946;SDS011;53853;51.982;5.928;2024-02-14T05:55:11;9.80;;;8.18;;
66946;SDS011;53853;51.982;5.928;2024-02-14T05:57:41;7.63;;;6.60;;
66946;SDS011;53853;51.982;5.928;2024-02-14T06:00:12;8.85;;;7.95;;
66946;SDS011;53853;51.982;5.928;2024-02-14T06:02:44;8.13;;;7.18;;
66946;SDS011;53853;51.982;5.928;2024-02-14T06:05:15;10.60;;;8.20;;
66946;SDS011;53853;51.982;5.928;2024-02-14T06:07:46;8.82;;;6.78;;
66946;SDS011;53853;51.982;5.928;2024-02-14T06:10:18;12.02;;;8.18;;
66946;SDS011;53853;51.982;5.928;2024-02-14T06:12:51;10.75;;;8.27;;
66946;SDS011;53853;51.982;5.928;2024-02-14T06:15:21;11.20;;;8.50;;
66946;SDS011;53853;51.982;5.928;2024-02-14T06:17:50;7.72;;;6.93;;
66946;SDS011;53853;51.982;5.928;2024-02-14T06:20:20;8.13;;;5.82;;
66946;SDS011;53853;51.982;5.928;2024-02-14T06:22:50;7.55;;;6.07;;
66946;SDS011;53853;51.982;5.928;2024-02-14T06:25:23;9.55;;;8.30;;
66946;SDS011;53853;51.982;5.928;2024-02-14T06:27:52;7.57;;;6.82;;
66946;SDS011;53853;51.982;5.928;2024-02-14T06:30:22;12.10;;;9.55;;
66946;SDS011;53853;51.982;5.928;2024-02-14T06:32:52;8.15;;;7.40;;
66946;SDS011;53853;51.982;5.928;2024-02-14T06:35:26;8.93;;;7.82;;
66946;SDS011;53853;51.982;5.928;2024-02-14T06:37:56;13.18;;;9.60;;
66946;SDS011;53853;51.982;5.928;2024-02-14T06:40:28;8.93;;;7.47;;
66946;SDS011;53853;51.982;5.928;2024-02-14T06:42:58;8.77;;;7.88;;
66946;SDS011;53853;51.982;5.928;2024-02-14T06:45:28;7.95;;;7.18;;
66946;SDS011;53853;51.982;5.928;2024-02-14T06:47:58;8.20;;;7.38;;
66946;SDS011;53853;51.982;5.928;2024-02-14T06:50:27;9.55;;;8.63;;
66946;SDS011;53853;51.982;5.928;2024-02-14T06:52:57;9.35;;;8.07;;
66946;SDS011;53853;51.982;5.928;2024-02-14T06:55:30;10.15;;;8.43;;
66946;SDS011;53853;51.982;5.928;2024-02-14T06:58:00;7.28;;;6.57;;
66946;SDS011;53853;51.982;5.928;2024-02-14T07:00:30;6.82;;;6.18;;
66946;SDS011;53853;51.982;5.928;2024-02-14T07:03:00;8.93;;;7.72;;
66946;SDS011;53853;51.982;5.928;2024-02-14T07:05:30;10.32;;;8.27;;
66946;SDS011;53853;51.982;5.928;2024-02-14T07:08:00;9.13;;;7.85;;
66946;SDS011;53853;51.982;5.928;2024-02-14T07:10:32;10.15;;;8.57;;
66946;SDS011;53853;51.982;5.928;2024-02-14T07:13:03;7.53;;;6.57;;
66946;SDS011;53853;51.982;5.928;2024-02-14T07:15:33;10.50;;;8.45;;
66946;SDS011;53853;51.982;5.928;2024-02-14T07:18:02;9.70;;;7.57;;
66946;SDS011;53853;51.982;5.928;2024-02-14T07:20:34;21.92;;;9.43;;
66946;SDS011;53853;51.982;5.928;2024-02-14T07:23:04;7.63;;;6.40;;
66946;SDS011;53853;51.982;5.928;2024-02-14T07:25:36;8.15;;;6.65;;
66946;SDS011;53853;51.982;5.928;2024-02-14T07:28:06;9.10;;;7.28;;
66946;SDS011;53853;51.982;5.928;2024-02-14T07:30:36;9.80;;;8.80;;
66946;SDS011;53853;51.982;5.928;2024-02-14T07:33:06;10.52;;;9.30;;
66946;SDS011;53853;51.982;5.928;2024-02-14T07:35:36;12.82;;;10.40;;
66946;SDS011;53853;51.982;5.928;2024-02-14T07:38:06;9.63;;;8.63;;
66946;SDS011;53853;51.982;5.928;2024-02-14T07:40:38;10.88;;;8.63;;
66946;SDS011;53853;51.982;5.928;2024-02-14T07:43:08;10.40;;;8.98;;
66946;SDS011;53853;51.982;5.928;2024-02-14T07:45:38;12.45;;;10.85;;
66946;SDS011;53853;51.982;5.928;2024-02-14T07:48:08;10.48;;;8.95;;
66946;SDS011;53853;51.982;5.928;2024-02-14T07:50:38;12.80;;;9.75;;
66946;SDS011;53853;51.982;5.928;2024-02-14T07:53:08;12.63;;;9.35;;
66946;SDS011;53853;51.982;5.928;2024-02-14T07:55:40;10.63;;;9.18;;
66946;SDS011;53853;51.982;5.928;2024-02-14T07:58:10;16.10;;;10.98;;
66946;SDS011;53853;51.982;5.928;2024-02-14T08:00:40;9.18;;;8.27;;
66946;SDS011;53853;51.982;5.928;2024-02-14T08:03:09;11.80;;;9.15;;
66946;SDS011;53853;51.982;5.928;2024-02-14T08:05:40;13.80;;;9.38;;
66946;SDS011;53853;51.982;5.928;2024-02-14T08:08:10;12.05;;;10.20;;
66946;SDS011;53853;51.982;5.928;2024-02-14T08:10:43;11.35;;;9.20;;
66946;SDS011;53853;51.982;5.928;2024-02-14T08:13:13;11.45;;;8.93;;
66946;SDS011;53853;51.982;5.928;2024-02-14T08:15:43;8.82;;;7.07;;
66946;SDS011;53853;51.982;5.928;2024-02-14T08:18:13;14.40;;;10.45;;
66946;SDS011;53853;51.982;5.928;2024-02-14T08:20:43;7.97;;;7.18;;
66946;SDS011;53853;51.982;5.928;2024-02-14T08:23:13;10.23;;;8.85;;
66946;SDS011;53853;51.982;5.928;2024-02-14T08:25:45;8.70;;;7.80;;
66946;SDS011;53853;51.982;5.928;2024-02-14T08:28:15;11.25;;;10.05;;
66946;SDS011;53853;51.982;5.928;2024-02-14T08:30:46;11.32;;;9.40;;
66946;SDS011;53853;51.982;5.928;2024-02-14T08:33:17;11.30;;;9.75;;
66946;SDS011;53853;51.982;5.928;2024-02-14T08:35:47;11.38;;;9.55;;
66946;SDS011;53853;51.982;5.928;2024-02-14T08:38:16;9.68;;;7.25;;
66946;SDS011;53853;51.982;5.928;2024-02-14T08:40:49;13.30;;;9.90;;
66946;SDS011;53853;51.982;5.928;2024-02-14T08:43:18;12.85;;;8.30;;
66946;SDS011;53853;51.982;5.928;2024-02-14T08:45:50;6.68;;;5.97;;
66946;SDS011;53853;51.982;5.928;2024-02-14T08:48:20;10.65;;;7.80;;
66946;SDS011;53853;51.982;5.928;2024-02-14T08:50:50;9.85;;;7.40;;
66946;SDS011;53853;51.982;5.928;2024-02-14T08:53:20;10.93;;;7.97;;
66946;SDS011;53853;51.982;5.928;2024-02-14T08:55:53;7.40;;;6.38;;
66946;SDS011;53853;51.982;5.928;2024-02-14T08:58:23;7.40;;;6.32;;
66946;SDS011;53853;51.982;5.928;2024-02-14T09:00:53;7.93;;;6.00;;
66946;SDS011;53853;51.982;5.928;2024-02-14T09:03:23;11.25;;;6.72;;
66946;SDS011;53853;51.982;5.928;2024-02-14T09:05:53;8.50;;;7.18;;
66946;SDS011;53853;51.982;5.928;2024-02-14T09:08:23;8.68;;;6.55;;
66946;SDS011;53853;51.982;5.928;2024-02-14T09:10:55;8.40;;;7.43;;
66946;SDS011;53853;51.982;5.928;2024-02-14T09:13:26;6.10;;;5.45;;
66946;SDS011;53853;51.982;5.928;2024-02-14T09:15:56;7.38;;;5.95;;
66946;SDS011;53853;51.982;5.928;2024-02-14T09:18:25;8.60;;;5.63;;
66946;SDS011;53853;51.982;5.928;2024-02-14T09:20:57;8.50;;;6.97;;
66946;SDS011;53853;51.982;5.928;2024-02-14T09:23:27;6.38;;;5.40;;
66946;SDS011;53853;51.982;5.928;2024-02-14T09:26:00;11.25;;;8.05;;
66946;SDS011;53853;51.982;5.928;2024-02-14T09:28:30;10.15;;;6.45;;
66946;SDS011;53853;51.982;5.928;2024-02-14T09:31:00;7.45;;;6.50;;
66946;SDS011;53853;51.982;5.928;2024-02-14T09:33:31;10.35;;;7.60;;
66946;SDS011;53853;51.982;5.928;2024-02-14T09:36:01;8.02;;;5.18;;
66946;SDS011;53853;51.982;5.928;2024-02-14T09:38:32;8.52;;;6.22;;
66946;SDS011;53853;51.982;5.928;2024-02-14T09:41:05;8.05;;;6.60;;
66946;SDS011;53853;51.982;5.928;2024-02-14T09:43:43;8.63;;;6.60;;
66946;SDS011;53853;51.982;5.928;2024-02-14T09:46:13;9.60;;;6.82;;
66946;SDS011;53853;51.982;5.928;2024-02-14T09:48:44;9.32;;;5.68;;
66946;SDS011;53853;51.982;5.928;2024-02-14T09:51:14;9.95;;;7.18;;
66946;SDS011;53853;51.982;5.928;2024-02-14T09:53:44;7.95;;;5.97;;
66946;SDS011;53853;51.982;5.928;2024-02-14T09:56:18;8.00;;;5.15;;
66946;SDS011;53853;51.982;5.928;2024-02-14T09:58:49;6.93;;;5.60;;
66946;SDS011;53853;51.982;5.928;2024-02-14T10:01:23;8.60;;;6.70;;
66946;SDS011;53853;51.982;5.928;2024-02-14T10:03:54;8.70;;;6.38;;
66946;SDS011;53853;51.982;5.928;2024-02-14T10:06:24;9.93;;;7.32;;
66946;SDS011;53853;51.982;5.928;2024-02-14T10:08:54;9.38;;;7.00;;
66946;SDS011;53853;51.982;5.928;2024-02-14T10:11:27;9.77;;;6.78;;
66946;SDS011;53853;51.982;5.928;2024-02-14T10:13:58;10.13;;;6.50;;
66946;SDS011;53853;51.982;5.928;2024-02-14T10:16:29;16.58;;;8.80;;
66946;SDS011;53853;51.982;5.928;2024-02-14T10:18:59;8.02;;;6.00;;
66946;SDS011;53853;51.982;5.928;2024-02-14T10:21:29;10.38;;;6.88;;
66946;SDS011;53853;51.982;5.928;2024-02-14T10:23:59;11.23;;;7.30;;
66946;SDS011;53853;51.982;5.928;2024-02-14T10:26:32;12.18;;;8.43;;
66946;SDS011;53853;51.982;5.928;2024-02-14T10:29:02;13.88;;;7.32;;
66946;SDS011;53853;51.982;5.928;2024-02-14T10:34:06;7.50;;;5.55;;
66946;SDS011;53853;51.982;5.928;2024-02-14T10:36:36;10.63;;;7.70;;
66946;SDS011;53853;51.982;5.928;2024-02-14T10:39:07;8.60;;;6.30;;
66946;SDS011;53853;51.982;5.928;2024-02-14T10:41:44;12.10;;;8.23;;
66946;SDS011;53853;51.982;5.928;2024-02-14T10:44:16;10.35;;;7.55;;
66946;SDS011;53853;51.982;5.928;2024-02-14T10:46:46;12.02;;;8.93;;
66946;SDS011;53853;51.982;5.928;2024-02-14T10:49:21;10.80;;;8.10;;
66946;SDS011;53853;51.982;5.928;2024-02-14T10:51:54;12.38;;;7.63;;
66946;SDS011;53853;51.982;5.928;2024-02-14T10:54:30;12.20;;;8.57;;
66946;SDS011;53853;51.982;5.928;2024-02-14T10:57:06;11.18;;;7.70;;
66946;SDS011;53853;51.982;5.928;2024-02-14T10:59:39;12.57;;;8.00;;
66946;SDS011;53853;51.982;5.928;2024-02-14T11:02:12;14.02;;;8.90;;
66946;SDS011;53853;51.982;5.928;2024-02-14T11:04:42;9.95;;;7.78;;
66946;SDS011;53853;51.982;5.928;2024-02-14T11:07:13;13.82;;;8.68;;
66946;SDS011;53853;51.982;5.928;2024-02-14T11:09:48;9.60;;;7.28;;
66946;SDS011;53853;51.982;5.928;2024-02-14T11:12:35;9.95;;;8.05;;
66946;SDS011;53853;51.982;5.928;2024-02-14T11:15:12;10.85;;;7.63;;
66946;SDS011;53853;51.982;5.928;2024-02-14T11:17:45;10.23;;;7.45;;
66946;SDS011;53853;51.982;5.928;2024-02-14T11:20:18;10.32;;;7.40;;
66946;SDS011;53853;51.982;5.928;2024-02-14T11:22:56;7.93;;;7.13;;
66946;SDS011;53853;51.982;5.928;2024-02-14T11:25:30;8.25;;;6.28;;
66946;SDS011;53853;51.982;5.928;2024-02-14T11:28:12;10.98;;;7.40;;
66946;SDS011;53853;51.982;5.928;2024-02-14T11:30:42;9.98;;;7.47;;
66946;SDS011;53853;51.982;5.928;2024-02-14T11:33:15;8.80;;;6.28;;
66946;SDS011;53853;51.982;5.928;2024-02-14T11:35:46;10.48;;;7.70;;
66946;SDS011;53853;51.982;5.928;2024-02-14T11:38:18;12.02;;;8.23;;
66946;SDS011;53853;51.982;5.928;2024-02-14T11:40:49;8.88;;;7.30;;
66946;SDS011;53853;51.982;5.928;2024-02-14T11:43:22;9.63;;;7.85;;
66946;SDS011;53853;51.982;5.928;2024-02-14T11:45:52;11.23;;;6.63;;
66946;SDS011;53853;51.982;5.928;2024-02-14T11:48:22;14.68;;;8.13;;
66946;SDS011;53853;51.982;5.928;2024-02-14T11:50:53;8.98;;;6.53;;
66946;SDS011;53853;51.982;5.928;2024-02-14T11:53:23;12.13;;;6.22;;
66946;SDS011;53853;51.982;5.928;2024-02-14T11:55:55;6.82;;;6.10;;
66946;SDS011;53853;51.982;5.928;2024-02-14T11:58:27;9.70;;;7.32;;
66946;SDS011;53853;51.982;5.928;2024-02-14T12:00:57;8.85;;;5.95;;
66946;SDS011;53853;51.982;5.928;2024-02-14T12:06:01;8.10;;;6.40;;
66946;SDS011;53853;51.982;5.928;2024-02-14T12:08:31;11.27;;;6.65;;
66946;SDS011;53853;51.982;5.928;2024-02-14T12:11:01;8.70;;;7.28;;
66946;SDS011;53853;51.982;5.928;2024-02-14T12:13:34;7.97;;;6.25;;
66946;SDS011;53853;51.982;5.928;2024-02-14T12:16:09;6.18;;;4.95;;
66946;SDS011;53853;51.982;5.928;2024-02-14T12:18:40;9.25;;;6.05;;
66946;SDS011;53853;51.982;5.928;2024-02-14T12:21:10;7.68;;;5.28;;
66946;SDS011;53853;51.982;5.928;2024-02-14T12:23:40;8.57;;;5.85;;
66946;SDS011;53853;51.982;5.928;2024-02-14T12:26:10;6.63;;;4.88;;
66946;SDS011;53853;51.982;5.928;2024-02-14T12:28:48;6.53;;;5.50;;
66946;SDS011;53853;51.982;5.928;2024-02-14T12:31:23;7.07;;;5.20;;
66946;SDS011;53853;51.982;5.928;2024-02-14T12:33:53;6.70;;;4.90;;
66946;SDS011;53853;51.982;5.928;2024-02-14T12:36:25;7.00;;;5.65;;
66946;SDS011;53853;51.982;5.928;2024-02-14T12:38:56;6.90;;;5.20;;
66946;SDS011;53853;51.982;5.928;2024-02-14T12:41:28;5.97;;;5.18;;
66946;SDS011;53853;51.982;5.928;2024-02-14T12:44:03;5.00;;;3.50;;
66946;SDS011;53853;51.982;5.928;2024-02-14T12:46:33;4.75;;;4.22;;
66946;SDS011;53853;51.982;5.928;2024-02-14T12:49:04;4.95;;;3.70;;
66946;SDS011;53853;51.982;5.928;2024-02-14T12:51:34;6.35;;;4.97;;
66946;SDS011;53853;51.982;5.928;2024-02-14T12:54:04;8.35;;;4.20;;
66946;SDS011;53853;51.982;5.928;2024-02-14T12:56:36;6.45;;;4.50;;
66946;SDS011;53853;51.982;5.928;2024-02-14T12:59:08;6.88;;;4.90;;
66946;SDS011;53853;51.982;5.928;2024-02-14T13:01:43;5.53;;;4.43;;
66946;SDS011;53853;51.982;5.928;2024-02-14T13:04:13;5.00;;;4.10;;
66946;SDS011;53853;51.982;5.928;2024-02-14T13:06:43;6.68;;;4.50;;
66946;SDS011;53853;51.982;5.928;2024-02-14T13:09:13;6.57;;;4.03;;
66946;SDS011;53853;51.982;5.928;2024-02-14T13:11:43;4.95;;;3.88;;
66946;SDS011;53853;51.982;5.928;2024-02-14T13:14:16;4.45;;;3.50;;
66946;SDS011;53853;51.982;5.928;2024-02-14T13:16:45;4.80;;;3.47;;
66946;SDS011;53853;51.982;5.928;2024-02-14T13:19:15;3.83;;;3.33;;
66946;SDS011;53853;51.982;5.928;2024-02-14T13:21:45;7.13;;;2.95;;
66946;SDS011;53853;51.982;5.928;2024-02-14T13:24:15;3.72;;;3.10;;
66946;SDS011;53853;51.982;5.928;2024-02-14T13:26:45;3.38;;;2.67;;
66946;SDS011;53853;51.982;5.928;2024-02-14T13:29:17;4.65;;;2.67;;
66946;SDS011;53853;51.982;5.928;2024-02-14T13:31:47;4.50;;;3.47;;
66946;SDS011;53853;51.982;5.928;2024-02-14T13:34:17;3.92;;;3.20;;
66946;SDS011;53853;51.982;5.928;2024-02-14T13:36:47;5.20;;;3.72;;
66946;SDS011;53853;51.982;5.928;2024-02-14T13:39:17;3.63;;;2.97;;
66946;SDS011;53853;51.982;5.928;2024-02-14T13:41:47;4.38;;;3.65;;
66946;SDS011;53853;51.982;5.928;2024-02-14T13:44:20;4.80;;;3.45;;
66946;SDS011;53853;51.982;5.928;2024-02-14T13:46:50;4.35;;;3.15;;
66946;SDS011;53853;51.982;5.928;2024-02-14T13:49:20;6.95;;;3.38;;
66946;SDS011;53853;51.982;5.928;2024-02-14T13:51:50;4.35;;;3.70;;
66946;SDS011;53853;51.982;5.928;2024-02-14T13:54:22;3.53;;;2.97;;
66946;SDS011;53853;51.982;5.928;2024-02-14T13:56:51;6.50;;;3.33;;
66946;SDS011;53853;51.982;5.928;2024-02-14T13:59:24;6.18;;;4.20;;
66946;SDS011;53853;51.982;5.928;2024-02-14T14:01:54;5.05;;;3.55;;
66946;SDS011;53853;51.982;5.928;2024-02-14T14:04:24;4.50;;;3.75;;
66946;SDS011;53853;51.982;5.928;2024-02-14T14:06:54;4.25;;;3.55;;
66946;SDS011;53853;51.982;5.928;2024-02-14T14:09:25;5.10;;;4.20;;
66946;SDS011;53853;51.982;5.928;2024-02-14T14:11:58;4.57;;;3.85;;
66946;SDS011;53853;51.982;5.928;2024-02-14T14:14:30;3.92;;;3.22;;
66946;SDS011;53853;51.982;5.928;2024-02-14T14:17:00;5.57;;;4.05;;
66946;SDS011;53853;51.982;5.928;2024-02-14T14:19:30;4.70;;;3.78;;
66946;SDS011;53853;51.982;5.928;2024-02-14T14:22:00;4.57;;;4.05;;
66946;SDS011;53853;51.982;5.928;2024-02-14T14:24:30;5.18;;;4.07;;
66946;SDS011;53853;51.982;5.928;2024-02-14T14:27:00;4.45;;;3.53;;
66946;SDS011;53853;51.982;5.928;2024-02-14T14:29:33;7.05;;;4.07;;
66946;SDS011;53853;51.982;5.928;2024-02-14T14:32:03;5.95;;;4.40;;
66946;SDS011;53853;51.982;5.928;2024-02-14T14:34:33;6.40;;;4.68;;
66946;SDS011;53853;51.982;5.928;2024-02-14T14:37:03;6.57;;;4.85;;
66946;SDS011;53853;51.982;5.928;2024-02-14T14:39:33;6.03;;;4.47;;
66946;SDS011;53853;51.982;5.928;2024-02-14T14:42:03;5.25;;;4.53;;
66946;SDS011;53853;51.982;5.928;2024-02-14T14:44:36;7.07;;;4.70;;
66946;SDS011;53853;51.982;5.928;2024-02-14T14:47:07;6.70;;;5.82;;
66946;SDS011;53853;51.982;5.928;2024-02-14T14:49:39;4.85;;;4.35;;
66946;SDS011;53853;51.982;5.928;2024-02-14T14:52:09;4.80;;;4.22;;
66946;SDS011;53853;51.982;5.928;2024-02-14T14:54:39;6.78;;;5.13;;
66946;SDS011;53853;51.982;5.928;2024-02-14T14:57:08;5.47;;;4.53;;
66946;SDS011;53853;51.982;5.928;2024-02-14T14:59:43;5.28;;;4.13;;
66946;SDS011;53853;51.982;5.928;2024-02-14T15:02:13;5.85;;;5.20;;
66946;SDS011;53853;51.982;5.928;2024-02-14T15:04:43;6.18;;;5.57;;
66946;SDS011;53853;51.982;5.928;2024-02-14T15:07:13;5.18;;;4.68;;
66946;SDS011;53853;51.982;5.928;2024-02-14T15:09:45;7.00;;;5.13;;